sensor_id;sensor_type;location;lat;lon;timestamp;temperature;humidity
50758;DHT22;36732;47.980;11.652;2023-05-07T00:01:43;16.50;62.20
50758;DHT22;36732;47.980;11.652;2023-05-07T00:04:09;16.50;62.30
50758;DHT22;36732;47.980;11.652;2023-05-07T00:06:35;16.50;62.10
50758;DHT22;36732;47.980;11.652;2023-05-07T00:09:01;16.50;62.20
50758;DHT22;36732;47.980;11.652;2023-05-07T00:11:28;16.50;62.30
50758;DHT22;36732;47.980;11.652;2023-05-07T00:13:54;16.50;62.50
50758;DHT22;36732;47.980;11.652;2023-05-07T00:16:19;16.50;62.50
50758;DHT22;36732;47.980;11.652;2023-05-07T00:18:45;16.40;62.40
50758;DHT22;36732;47.980;11.652;2023-05-07T00:21:11;16.40;62.30
50758;DHT22;36732;47.980;11.652;2023-05-07T00:23:37;16.40;62.30
50758;DHT22;36732;47.980;11.652;2023-05-07T00:26:03;16.40;62.30
50758;DHT22;36732;47.980;11.652;2023-05-07T00:28:29;16.40;62.30
50758;DHT22;36732;47.980;11.652;2023-05-07T00:30:55;16.40;62.30
50758;DHT22;36732;47.980;11.652;2023-05-07T00:33:21;16.40;62.30
50758;DHT22;36732;47.980;11.652;2023-05-07T00:35:48;16.40;62.40
50758;DHT22;36732;47.980;11.652;2023-05-07T00:38:14;16.40;62.40
50758;DHT22;36732;47.980;11.652;2023-05-07T00:40:40;16.40;62.50
50758;DHT22;36732;47.980;11.652;2023-05-07T00:43:06;16.30;62.50
50758;DHT22;36732;47.980;11.652;2023-05-07T00:45:32;16.30;62.80
50758;DHT22;36732;47.980;11.652;2023-05-07T00:48:00;16.30;62.70
50758;DHT22;36732;47.980;11.652;2023-05-07T00:50:27;16.30;62.80
50758;DHT22;36732;47.980;11.652;2023-05-07T00:52:54;16.30;62.80
50758;DHT22;36732;47.980;11.652;2023-05-07T00:55:21;16.30;62.70
50758;DHT22;36732;47.980;11.652;2023-05-07T00:57:47;16.30;62.70
50758;DHT22;36732;47.980;11.652;2023-05-07T01:00:13;16.30;62.70
50758;DHT22;36732;47.980;11.652;2023-05-07T01:02:39;16.30;62.80
50758;DHT22;36732;47.980;11.652;2023-05-07T01:05:08;16.30;62.80
50758;DHT22;36732;47.980;11.652;2023-05-07T01:07:40;16.30;62.80
50758;DHT22;36732;47.980;11.652;2023-05-07T01:10:07;16.30;62.80
50758;DHT22;36732;47.980;11.652;2023-05-07T01:12:34;16.30;62.80
50758;DHT22;36732;47.980;11.652;2023-05-07T01:15:02;16.30;62.80
50758;DHT22;36732;47.980;11.652;2023-05-07T01:17:28;16.30;62.80
50758;DHT22;36732;47.980;11.652;2023-05-07T01:19:54;16.30;62.90
50758;DHT22;36732;47.980;11.652;2023-05-07T01:22:33;16.30;62.80
50758;DHT22;36732;47.980;11.652;2023-05-07T01:25:02;16.20;62.80
50758;DHT22;36732;47.980;11.652;2023-05-07T01:27:29;16.20;62.70
50758;DHT22;36732;47.980;11.652;2023-05-07T01:29:55;16.20;62.80
50758;DHT22;36732;47.980;11.652;2023-05-07T01:32:45;16.20;62.70
50758;DHT22;36732;47.980;11.652;2023-05-07T01:35:20;16.20;62.70
50758;DHT22;36732;47.980;11.652;2023-05-07T01:37:48;16.20;62.60
50758;DHT22;36732;47.980;11.652;2023-05-07T01:40:15;16.20;62.60
50758;DHT22;36732;47.980;11.652;2023-05-07T01:42:43;16.20;62.50
50758;DHT22;36732;47.980;11.652;2023-05-07T01:45:09;16.20;62.40
50758;DHT22;36732;47.980;11.652;2023-05-07T01:47:36;16.10;62.40
50758;DHT22;36732;47.980;11.652;2023-05-07T01:50:05;16.10;62.40
50758;DHT22;36732;47.980;11.652;2023-05-07T01:52:31;16.10;62.40
50758;DHT22;36732;47.980;11.652;2023-05-07T01:54:57;16.10;62.40
50758;DHT22;36732;47.980;11.652;2023-05-07T01:57:22;16.10;62.40
50758;DHT22;36732;47.980;11.652;2023-05-07T01:59:48;16.10;62.50
50758;DHT22;36732;47.980;11.652;2023-05-07T02:02:14;16.10;62.40
50758;DHT22;36732;47.980;11.652;2023-05-07T02:04:39;16.10;62.30
50758;DHT22;36732;47.980;11.652;2023-05-07T02:07:05;16.10;62.20
50758;DHT22;36732;47.980;11.652;2023-05-07T02:09:31;16.00;62.10
50758;DHT22;36732;47.980;11.652;2023-05-07T02:11:56;16.00;62.10
50758;DHT22;36732;47.980;11.652;2023-05-07T02:14:22;16.00;62.20
50758;DHT22;36732;47.980;11.652;2023-05-07T02:16:48;16.00;62.30
50758;DHT22;36732;47.980;11.652;2023-05-07T02:19:14;16.00;62.20
50758;DHT22;36732;47.980;11.652;2023-05-07T02:21:39;16.00;62.20
50758;DHT22;36732;47.980;11.652;2023-05-07T02:24:05;16.00;62.30
50758;DHT22;36732;47.980;11.652;2023-05-07T02:26:31;16.00;62.20
50758;DHT22;36732;47.980;11.652;2023-05-07T02:28:57;15.90;62.10
50758;DHT22;36732;47.980;11.652;2023-05-07T02:31:22;15.90;62.00
50758;DHT22;36732;47.980;11.652;2023-05-07T02:33:48;15.90;62.00
50758;DHT22;36732;47.980;11.652;2023-05-07T02:36:14;15.90;62.00
50758;DHT22;36732;47.980;11.652;2023-05-07T02:38:39;15.90;62.00
50758;DHT22;36732;47.980;11.652;2023-05-07T02:41:05;15.90;62.10
50758;DHT22;36732;47.980;11.652;2023-05-07T02:43:31;15.80;62.00
50758;DHT22;36732;47.980;11.652;2023-05-07T02:46:15;15.90;62.10
50758;DHT22;36732;47.980;11.652;2023-05-07T02:48:41;15.80;62.00
50758;DHT22;36732;47.980;11.652;2023-05-07T02:51:06;15.80;62.00
50758;DHT22;36732;47.980;11.652;2023-05-07T02:53:32;15.80;62.00
50758;DHT22;36732;47.980;11.652;2023-05-07T02:55:59;15.80;62.10
50758;DHT22;36732;47.980;11.652;2023-05-07T02:58:26;15.80;62.10
50758;DHT22;36732;47.980;11.652;2023-05-07T03:00:52;15.80;62.10
50758;DHT22;36732;47.980;11.652;2023-05-07T03:03:18;15.80;62.20
50758;DHT22;36732;47.980;11.652;2023-05-07T03:05:44;15.80;62.20
50758;DHT22;36732;47.980;11.652;2023-05-07T03:08:10;15.80;62.20
50758;DHT22;36732;47.980;11.652;2023-05-07T03:10:36;15.80;62.20
50758;DHT22;36732;47.980;11.652;2023-05-07T03:13:02;15.70;62.30
50758;DHT22;36732;47.980;11.652;2023-05-07T03:15:28;15.70;62.30
50758;DHT22;36732;47.980;11.652;2023-05-07T03:17:54;15.70;62.30
50758;DHT22;36732;47.980;11.652;2023-05-07T03:20:19;15.70;62.40
50758;DHT22;36732;47.980;11.652;2023-05-07T03:22:45;15.70;62.40
50758;DHT22;36732;47.980;11.652;2023-05-07T03:25:11;15.70;62.40
50758;DHT22;36732;47.980;11.652;2023-05-07T03:27:37;15.70;62.30
50758;DHT22;36732;47.980;11.652;2023-05-07T03:30:03;15.70;62.20
50758;DHT22;36732;47.980;11.652;2023-05-07T03:32:30;15.70;62.20
50758;DHT22;36732;47.980;11.652;2023-05-07T03:34:55;15.70;62.30
50758;DHT22;36732;47.980;11.652;2023-05-07T03:37:21;15.60;62.20
50758;DHT22;36732;47.980;11.652;2023-05-07T03:39:47;15.60;62.10
50758;DHT22;36732;47.980;11.652;2023-05-07T03:42:13;15.70;62.20
50758;DHT22;36732;47.980;11.652;2023-05-07T03:44:38;15.60;62.10
50758;DHT22;36732;47.980;11.652;2023-05-07T03:47:04;15.60;62.10
50758;DHT22;36732;47.980;11.652;2023-05-07T03:49:30;15.60;62.10
50758;DHT22;36732;47.980;11.652;2023-05-07T03:51:56;15.60;62.10
50758;DHT22;36732;47.980;11.652;2023-05-07T03:54:21;15.60;62.10
50758;DHT22;36732;47.980;11.652;2023-05-07T03:56:47;15.60;62.00
50758;DHT22;36732;47.980;11.652;2023-05-07T03:59:13;15.60;62.00
50758;DHT22;36732;47.980;11.652;2023-05-07T04:01:39;15.50;61.90
50758;DHT22;36732;47.980;11.652;2023-05-07T04:04:05;15.50;62.00
50758;DHT22;36732;47.980;11.652;2023-05-07T04:06:31;15.50;62.00
50758;DHT22;36732;47.980;11.652;2023-05-07T04:08:57;15.50;62.10
50758;DHT22;36732;47.980;11.652;2023-05-07T04:11:23;15.50;62.20
50758;DHT22;36732;47.980;11.652;2023-05-07T04:13:48;15.50;62.20
50758;DHT22;36732;47.980;11.652;2023-05-07T04:16:14;15.50;62.20
50758;DHT22;36732;47.980;11.652;2023-05-07T04:18:40;15.50;62.20
50758;DHT22;36732;47.980;11.652;2023-05-07T04:21:14;15.50;62.20
50758;DHT22;36732;47.980;11.652;2023-05-07T04:23:43;15.40;62.20
50758;DHT22;36732;47.980;11.652;2023-05-07T04:26:09;15.50;62.20
50758;DHT22;36732;47.980;11.652;2023-05-07T04:28:35;15.50;62.20
50758;DHT22;36732;47.980;11.652;2023-05-07T04:31:01;15.40;62.20
50758;DHT22;36732;47.980;11.652;2023-05-07T04:33:27;15.40;62.20
50758;DHT22;36732;47.980;11.652;2023-05-07T04:35:53;15.40;62.20
50758;DHT22;36732;47.980;11.652;2023-05-07T04:38:19;15.40;62.20
50758;DHT22;36732;47.980;11.652;2023-05-07T04:40:45;15.40;62.30
50758;DHT22;36732;47.980;11.652;2023-05-07T04:43:11;15.40;62.40
50758;DHT22;36732;47.980;11.652;2023-05-07T04:45:37;15.40;62.60
50758;DHT22;36732;47.980;11.652;2023-05-07T04:48:05;15.40;62.70
50758;DHT22;36732;47.980;11.652;2023-05-07T04:50:30;15.40;62.70
50758;DHT22;36732;47.980;11.652;2023-05-07T04:52:56;15.40;62.90
50758;DHT22;36732;47.980;11.652;2023-05-07T04:55:22;15.40;62.90
50758;DHT22;36732;47.980;11.652;2023-05-07T04:57:48;15.40;63.00
50758;DHT22;36732;47.980;11.652;2023-05-07T05:00:14;15.40;63.00
50758;DHT22;36732;47.980;11.652;2023-05-07T05:02:40;15.40;63.10
50758;DHT22;36732;47.980;11.652;2023-05-07T05:05:06;15.40;63.30
50758;DHT22;36732;47.980;11.652;2023-05-07T05:07:32;15.40;63.40
50758;DHT22;36732;47.980;11.652;2023-05-07T05:09:58;15.40;63.40
50758;DHT22;36732;47.980;11.652;2023-05-07T05:12:24;15.40;63.50
50758;DHT22;36732;47.980;11.652;2023-05-07T05:14:50;15.40;63.60
50758;DHT22;36732;47.980;11.652;2023-05-07T05:17:16;15.50;63.80
50758;DHT22;36732;47.980;11.652;2023-05-07T05:19:42;15.40;63.80
50758;DHT22;36732;47.980;11.652;2023-05-07T05:22:07;15.40;63.90
50758;DHT22;36732;47.980;11.652;2023-05-07T05:24:33;15.50;64.00
50758;DHT22;36732;47.980;11.652;2023-05-07T05:26:59;15.50;64.10
50758;DHT22;36732;47.980;11.652;2023-05-07T05:29:27;15.50;64.20
50758;DHT22;36732;47.980;11.652;2023-05-07T05:31:53;15.50;64.50
50758;DHT22;36732;47.980;11.652;2023-05-07T05:34:18;15.60;64.60
50758;DHT22;36732;47.980;11.652;2023-05-07T05:36:47;15.60;64.70
50758;DHT22;36732;47.980;11.652;2023-05-07T05:39:13;15.60;65.00
50758;DHT22;36732;47.980;11.652;2023-05-07T05:41:39;15.60;65.10
50758;DHT22;36732;47.980;11.652;2023-05-07T05:44:05;15.70;65.30
50758;DHT22;36732;47.980;11.652;2023-05-07T05:46:31;15.70;65.40
50758;DHT22;36732;47.980;11.652;2023-05-07T05:48:57;15.70;65.50
50758;DHT22;36732;47.980;11.652;2023-05-07T05:51:22;15.70;65.70
50758;DHT22;36732;47.980;11.652;2023-05-07T05:53:48;15.70;65.70
50758;DHT22;36732;47.980;11.652;2023-05-07T05:56:15;15.80;65.70
50758;DHT22;36732;47.980;11.652;2023-05-07T05:58:41;15.80;65.70
50758;DHT22;36732;47.980;11.652;2023-05-07T06:01:07;15.90;65.90
50758;DHT22;36732;47.980;11.652;2023-05-07T06:03:32;15.90;65.80
50758;DHT22;36732;47.980;11.652;2023-05-07T06:05:58;16.00;65.90
50758;DHT22;36732;47.980;11.652;2023-05-07T06:08:25;16.00;65.90
50758;DHT22;36732;47.980;11.652;2023-05-07T06:10:54;16.00;66.00
50758;DHT22;36732;47.980;11.652;2023-05-07T06:13:20;16.10;66.10
50758;DHT22;36732;47.980;11.652;2023-05-07T06:15:46;16.10;66.40
50758;DHT22;36732;47.980;11.652;2023-05-07T06:18:12;16.10;66.40
50758;DHT22;36732;47.980;11.652;2023-05-07T06:20:37;16.10;66.30
50758;DHT22;36732;47.980;11.652;2023-05-07T06:23:03;16.20;66.50
50758;DHT22;36732;47.980;11.652;2023-05-07T06:25:29;16.20;66.60
50758;DHT22;36732;47.980;11.652;2023-05-07T06:27:54;16.20;66.40
50758;DHT22;36732;47.980;11.652;2023-05-07T06:30:20;16.30;66.80
50758;DHT22;36732;47.980;11.652;2023-05-07T06:32:46;16.30;67.10
50758;DHT22;36732;47.980;11.652;2023-05-07T06:35:12;16.30;67.00
50758;DHT22;36732;47.980;11.652;2023-05-07T06:37:38;16.40;67.60
50758;DHT22;36732;47.980;11.652;2023-05-07T06:40:05;16.40;67.60
50758;DHT22;36732;47.980;11.652;2023-05-07T06:42:32;16.40;67.80
50758;DHT22;36732;47.980;11.652;2023-05-07T06:44:58;16.40;68.00
50758;DHT22;36732;47.980;11.652;2023-05-07T06:47:23;16.50;68.00
50758;DHT22;36732;47.980;11.652;2023-05-07T06:49:49;16.50;68.00
50758;DHT22;36732;47.980;11.652;2023-05-07T06:52:15;16.50;68.40
50758;DHT22;36732;47.980;11.652;2023-05-07T06:54:44;16.50;68.40
50758;DHT22;36732;47.980;11.652;2023-05-07T06:57:09;16.50;69.00
50758;DHT22;36732;47.980;11.652;2023-05-07T06:59:35;16.60;68.20
50758;DHT22;36732;47.980;11.652;2023-05-07T07:02:01;16.60;68.30
50758;DHT22;36732;47.980;11.652;2023-05-07T07:04:27;16.60;68.20
50758;DHT22;36732;47.980;11.652;2023-05-07T07:06:54;16.60;68.50
50758;DHT22;36732;47.980;11.652;2023-05-07T07:09:20;16.70;68.20
50758;DHT22;36732;47.980;11.652;2023-05-07T07:11:45;16.70;68.60
50758;DHT22;36732;47.980;11.652;2023-05-07T07:14:11;16.70;68.20
50758;DHT22;36732;47.980;11.652;2023-05-07T07:16:37;16.70;68.40
50758;DHT22;36732;47.980;11.652;2023-05-07T07:19:03;16.80;68.50
50758;DHT22;36732;47.980;11.652;2023-05-07T07:21:28;16.80;68.60
50758;DHT22;36732;47.980;11.652;2023-05-07T07:23:55;16.80;68.70
50758;DHT22;36732;47.980;11.652;2023-05-07T07:26:20;16.80;68.50
50758;DHT22;36732;47.980;11.652;2023-05-07T07:28:46;16.90;68.50
50758;DHT22;36732;47.980;11.652;2023-05-07T07:31:12;16.90;68.40
50758;DHT22;36732;47.980;11.652;2023-05-07T07:33:38;16.90;68.70
50758;DHT22;36732;47.980;11.652;2023-05-07T07:36:05;17.00;68.90
50758;DHT22;36732;47.980;11.652;2023-05-07T07:38:32;17.00;68.60
50758;DHT22;36732;47.980;11.652;2023-05-07T07:40:58;17.00;68.40
50758;DHT22;36732;47.980;11.652;2023-05-07T07:43:24;17.00;68.40
50758;DHT22;36732;47.980;11.652;2023-05-07T07:45:49;17.00;68.50
50758;DHT22;36732;47.980;11.652;2023-05-07T07:48:15;17.10;68.40
50758;DHT22;36732;47.980;11.652;2023-05-07T07:50:41;17.10;68.40
50758;DHT22;36732;47.980;11.652;2023-05-07T07:53:07;17.10;68.30
50758;DHT22;36732;47.980;11.652;2023-05-07T07:55:34;17.10;68.50
50758;DHT22;36732;47.980;11.652;2023-05-07T07:58:03;17.10;68.50
50758;DHT22;36732;47.980;11.652;2023-05-07T08:00:29;17.10;68.60
50758;DHT22;36732;47.980;11.652;2023-05-07T08:02:55;17.10;68.50
50758;DHT22;36732;47.980;11.652;2023-05-07T08:05:20;17.20;68.60
50758;DHT22;36732;47.980;11.652;2023-05-07T08:07:47;17.10;68.60
50758;DHT22;36732;47.980;11.652;2023-05-07T08:10:17;17.20;68.70
50758;DHT22;36732;47.980;11.652;2023-05-07T08:12:50;17.20;68.80
50758;DHT22;36732;47.980;11.652;2023-05-07T08:15:16;17.30;68.80
50758;DHT22;36732;47.980;11.652;2023-05-07T08:17:42;17.30;68.60
50758;DHT22;36732;47.980;11.652;2023-05-07T08:20:09;17.30;68.40
50758;DHT22;36732;47.980;11.652;2023-05-07T08:22:35;17.30;68.30
50758;DHT22;36732;47.980;11.652;2023-05-07T08:25:02;17.30;68.20
50758;DHT22;36732;47.980;11.652;2023-05-07T08:27:28;17.30;68.00
50758;DHT22;36732;47.980;11.652;2023-05-07T08:29:54;17.30;67.90
50758;DHT22;36732;47.980;11.652;2023-05-07T08:32:20;17.40;67.90
50758;DHT22;36732;47.980;11.652;2023-05-07T08:34:46;17.40;67.80
50758;DHT22;36732;47.980;11.652;2023-05-07T08:37:13;17.40;67.80
50758;DHT22;36732;47.980;11.652;2023-05-07T08:39:39;17.40;68.00
50758;DHT22;36732;47.980;11.652;2023-05-07T08:42:04;17.40;67.90
50758;DHT22;36732;47.980;11.652;2023-05-07T08:44:34;17.40;67.90
50758;DHT22;36732;47.980;11.652;2023-05-07T08:47:02;17.50;67.60
50758;DHT22;36732;47.980;11.652;2023-05-07T08:49:29;17.50;67.80
50758;DHT22;36732;47.980;11.652;2023-05-07T08:51:54;17.50;67.70
50758;DHT22;36732;47.980;11.652;2023-05-07T08:54:21;17.50;67.70
50758;DHT22;36732;47.980;11.652;2023-05-07T08:56:47;17.50;67.50
50758;DHT22;36732;47.980;11.652;2023-05-07T08:59:13;17.60;67.80
50758;DHT22;36732;47.980;11.652;2023-05-07T09:01:39;17.60;68.40
50758;DHT22;36732;47.980;11.652;2023-05-07T09:04:05;17.60;68.00
50758;DHT22;36732;47.980;11.652;2023-05-07T09:06:33;17.60;67.60
50758;DHT22;36732;47.980;11.652;2023-05-07T09:09:00;17.60;67.50
50758;DHT22;36732;47.980;11.652;2023-05-07T09:11:26;17.60;67.20
50758;DHT22;36732;47.980;11.652;2023-05-07T09:13:56;17.70;67.30
50758;DHT22;36732;47.980;11.652;2023-05-07T09:16:29;17.70;67.10
50758;DHT22;36732;47.980;11.652;2023-05-07T09:18:58;17.70;67.20
50758;DHT22;36732;47.980;11.652;2023-05-07T09:21:24;17.80;67.50
50758;DHT22;36732;47.980;11.652;2023-05-07T09:23:54;17.80;67.20
50758;DHT22;36732;47.980;11.652;2023-05-07T09:26:22;17.80;67.20
50758;DHT22;36732;47.980;11.652;2023-05-07T09:28:48;17.80;67.20
50758;DHT22;36732;47.980;11.652;2023-05-07T09:31:14;17.80;67.00
50758;DHT22;36732;47.980;11.652;2023-05-07T09:33:40;17.80;66.90
50758;DHT22;36732;47.980;11.652;2023-05-07T09:36:07;17.90;66.80
50758;DHT22;36732;47.980;11.652;2023-05-07T09:38:35;17.90;66.40
50758;DHT22;36732;47.980;11.652;2023-05-07T09:41:06;17.90;66.30
50758;DHT22;36732;47.980;11.652;2023-05-07T09:43:38;17.90;66.20
50758;DHT22;36732;47.980;11.652;2023-05-07T09:46:15;17.90;66.50
50758;DHT22;36732;47.980;11.652;2023-05-07T09:48:44;17.90;66.00
50758;DHT22;36732;47.980;11.652;2023-05-07T09:51:28;17.90;66.10
50758;DHT22;36732;47.980;11.652;2023-05-07T09:53:58;18.00;65.50
50758;DHT22;36732;47.980;11.652;2023-05-07T09:56:30;18.00;64.90
50758;DHT22;36732;47.980;11.652;2023-05-07T09:58:59;18.00;65.10
50758;DHT22;36732;47.980;11.652;2023-05-07T10:01:25;18.00;65.70
50758;DHT22;36732;47.980;11.652;2023-05-07T10:03:52;18.00;65.60
50758;DHT22;36732;47.980;11.652;2023-05-07T10:06:20;18.10;65.80
50758;DHT22;36732;47.980;11.652;2023-05-07T10:08:46;18.10;65.50
50758;DHT22;36732;47.980;11.652;2023-05-07T10:11:14;18.10;65.70
50758;DHT22;36732;47.980;11.652;2023-05-07T10:13:41;18.10;65.70
50758;DHT22;36732;47.980;11.652;2023-05-07T10:16:08;18.10;65.10
50758;DHT22;36732;47.980;11.652;2023-05-07T10:18:34;18.10;65.20
50758;DHT22;36732;47.980;11.652;2023-05-07T10:21:11;18.20;64.90
50758;DHT22;36732;47.980;11.652;2023-05-07T10:23:40;18.20;64.50
50758;DHT22;36732;47.980;11.652;2023-05-07T10:26:07;18.20;64.50
50758;DHT22;36732;47.980;11.652;2023-05-07T10:28:39;18.20;64.20
50758;DHT22;36732;47.980;11.652;2023-05-07T10:34:16;18.20;63.40
50758;DHT22;36732;47.980;11.652;2023-05-07T10:36:46;18.30;63.80
50758;DHT22;36732;47.980;11.652;2023-05-07T10:39:12;18.30;63.90
50758;DHT22;36732;47.980;11.652;2023-05-07T10:41:39;18.30;63.20
50758;DHT22;36732;47.980;11.652;2023-05-07T10:44:05;18.30;63.00
50758;DHT22;36732;47.980;11.652;2023-05-07T10:46:31;18.30;63.10
50758;DHT22;36732;47.980;11.652;2023-05-07T10:51:26;18.30;63.10
50758;DHT22;36732;47.980;11.652;2023-05-07T10:56:38;18.40;62.10
50758;DHT22;36732;47.980;11.652;2023-05-07T11:01:59;18.40;62.10
50758;DHT22;36732;47.980;11.652;2023-05-07T11:04:28;18.40;62.50
50758;DHT22;36732;47.980;11.652;2023-05-07T11:10:00;18.40;62.50
50758;DHT22;36732;47.980;11.652;2023-05-07T11:15:11;18.50;61.40
50758;DHT22;36732;47.980;11.652;2023-05-07T11:17:55;18.50;62.10
50758;DHT22;36732;47.980;11.652;2023-05-07T11:26:10;18.60;61.60
50758;DHT22;36732;47.980;11.652;2023-05-07T11:28:41;18.60;60.80
50758;DHT22;36732;47.980;11.652;2023-05-07T11:31:08;18.60;61.20
50758;DHT22;36732;47.980;11.652;2023-05-07T11:33:35;18.60;61.50
50758;DHT22;36732;47.980;11.652;2023-05-07T11:36:03;18.60;61.80
50758;DHT22;36732;47.980;11.652;2023-05-07T11:38:30;18.60;61.70
50758;DHT22;36732;47.980;11.652;2023-05-07T11:41:00;18.60;60.70
50758;DHT22;36732;47.980;11.652;2023-05-07T11:43:27;18.70;61.00
50758;DHT22;36732;47.980;11.652;2023-05-07T11:45:53;18.70;60.80
50758;DHT22;36732;47.980;11.652;2023-05-07T11:48:21;18.70;60.60
50758;DHT22;36732;47.980;11.652;2023-05-07T11:51:03;18.70;61.10
50758;DHT22;36732;47.980;11.652;2023-05-07T11:53:38;18.70;60.20
50758;DHT22;36732;47.980;11.652;2023-05-07T11:56:09;18.70;60.90
50758;DHT22;36732;47.980;11.652;2023-05-07T11:58:36;18.80;61.20
50758;DHT22;36732;47.980;11.652;2023-05-07T12:01:02;18.80;61.50
50758;DHT22;36732;47.980;11.652;2023-05-07T12:03:28;18.80;61.10
50758;DHT22;36732;47.980;11.652;2023-05-07T12:05:54;18.80;61.10
50758;DHT22;36732;47.980;11.652;2023-05-07T12:08:21;18.80;61.30
50758;DHT22;36732;47.980;11.652;2023-05-07T12:10:49;18.80;61.70
50758;DHT22;36732;47.980;11.652;2023-05-07T12:13:15;18.80;61.80
50758;DHT22;36732;47.980;11.652;2023-05-07T12:15:42;18.80;61.70
50758;DHT22;36732;47.980;11.652;2023-05-07T12:18:09;18.90;61.70
50758;DHT22;36732;47.980;11.652;2023-05-07T12:20:36;18.80;61.70
50758;DHT22;36732;47.980;11.652;2023-05-07T12:23:02;18.80;61.60
50758;DHT22;36732;47.980;11.652;2023-05-07T12:25:32;18.90;61.30
50758;DHT22;36732;47.980;11.652;2023-05-07T12:28:01;18.90;61.40
50758;DHT22;36732;47.980;11.652;2023-05-07T12:30:27;18.90;61.60
50758;DHT22;36732;47.980;11.652;2023-05-07T12:32:54;18.90;61.40
50758;DHT22;36732;47.980;11.652;2023-05-07T12:35:31;18.90;60.80
50758;DHT22;36732;47.980;11.652;2023-05-07T12:37:58;18.90;60.30
50758;DHT22;36732;47.980;11.652;2023-05-07T12:43:04;19.00;59.80
50758;DHT22;36732;47.980;11.652;2023-05-07T12:45:30;19.00;60.40
50758;DHT22;36732;47.980;11.652;2023-05-07T12:47:56;19.00;60.90
50758;DHT22;36732;47.980;11.652;2023-05-07T12:50:22;19.10;61.10
50758;DHT22;36732;47.980;11.652;2023-05-07T12:52:48;19.00;60.60
50758;DHT22;36732;47.980;11.652;2023-05-07T12:55:15;19.10;60.90
50758;DHT22;36732;47.980;11.652;2023-05-07T12:57:43;19.00;60.50
50758;DHT22;36732;47.980;11.652;2023-05-07T13:00:11;19.10;60.70
50758;DHT22;36732;47.980;11.652;2023-05-07T13:02:38;19.10;60.80
50758;DHT22;36732;47.980;11.652;2023-05-07T13:05:05;19.10;60.00
50758;DHT22;36732;47.980;11.652;2023-05-07T13:07:31;19.10;60.20
50758;DHT22;36732;47.980;11.652;2023-05-07T13:09:57;19.10;60.60
50758;DHT22;36732;47.980;11.652;2023-05-07T13:12:22;19.10;60.80
50758;DHT22;36732;47.980;11.652;2023-05-07T13:14:48;19.10;60.30
50758;DHT22;36732;47.980;11.652;2023-05-07T13:17:14;19.20;60.20
50758;DHT22;36732;47.980;11.652;2023-05-07T13:19:39;19.20;60.00
50758;DHT22;36732;47.980;11.652;2023-05-07T13:22:05;19.20;60.20
50758;DHT22;36732;47.980;11.652;2023-05-07T13:24:31;19.20;60.10
50758;DHT22;36732;47.980;11.652;2023-05-07T13:26:56;19.20;60.20
50758;DHT22;36732;47.980;11.652;2023-05-07T13:29:22;19.20;60.00
50758;DHT22;36732;47.980;11.652;2023-05-07T13:31:58;19.30;59.70
50758;DHT22;36732;47.980;11.652;2023-05-07T13:34:24;19.30;59.80
50758;DHT22;36732;47.980;11.652;2023-05-07T13:36:50;19.30;59.70
50758;DHT22;36732;47.980;11.652;2023-05-07T13:39:16;19.30;59.50
50758;DHT22;36732;47.980;11.652;2023-05-07T13:41:42;19.30;59.60
50758;DHT22;36732;47.980;11.652;2023-05-07T13:44:07;19.30;59.60
50758;DHT22;36732;47.980;11.652;2023-05-07T13:46:33;19.30;59.90
50758;DHT22;36732;47.980;11.652;2023-05-07T13:48:59;19.30;59.70
50758;DHT22;36732;47.980;11.652;2023-05-07T13:51:25;19.30;59.50
50758;DHT22;36732;47.980;11.652;2023-05-07T13:53:51;19.30;59.30
50758;DHT22;36732;47.980;11.652;2023-05-07T13:56:17;19.30;59.20
50758;DHT22;36732;47.980;11.652;2023-05-07T13:58:43;19.30;58.80
50758;DHT22;36732;47.980;11.652;2023-05-07T14:01:09;19.30;59.00
50758;DHT22;36732;47.980;11.652;2023-05-07T14:03:34;19.30;59.10
50758;DHT22;36732;47.980;11.652;2023-05-07T14:06:03;19.30;59.10
50758;DHT22;36732;47.980;11.652;2023-05-07T14:08:29;19.30;59.20
50758;DHT22;36732;47.980;11.652;2023-05-07T14:10:55;19.30;59.20
50758;DHT22;36732;47.980;11.652;2023-05-07T14:13:20;19.30;59.50
50758;DHT22;36732;47.980;11.652;2023-05-07T14:15:46;19.30;59.60
50758;DHT22;36732;47.980;11.652;2023-05-07T14:18:14;19.30;59.60
50758;DHT22;36732;47.980;11.652;2023-05-07T14:20:40;19.30;59.60
50758;DHT22;36732;47.980;11.652;2023-05-07T14:23:06;19.30;59.70
50758;DHT22;36732;47.980;11.652;2023-05-07T14:25:32;19.30;59.70
50758;DHT22;36732;47.980;11.652;2023-05-07T14:27:57;19.30;59.70
50758;DHT22;36732;47.980;11.652;2023-05-07T14:30:23;19.30;59.50
50758;DHT22;36732;47.980;11.652;2023-05-07T14:32:50;19.30;59.60
50758;DHT22;36732;47.980;11.652;2023-05-07T14:35:16;19.30;59.50
50758;DHT22;36732;47.980;11.652;2023-05-07T14:37:43;19.30;59.70
50758;DHT22;36732;47.980;11.652;2023-05-07T14:40:09;19.30;59.70
50758;DHT22;36732;47.980;11.652;2023-05-07T14:42:35;19.30;59.60
50758;DHT22;36732;47.980;11.652;2023-05-07T14:45:01;19.30;59.20
50758;DHT22;36732;47.980;11.652;2023-05-07T14:47:27;19.30;59.50
50758;DHT22;36732;47.980;11.652;2023-05-07T14:49:53;19.30;59.40
50758;DHT22;36732;47.980;11.652;2023-05-07T14:52:20;19.30;59.50
50758;DHT22;36732;47.980;11.652;2023-05-07T14:54:45;19.30;59.50
50758;DHT22;36732;47.980;11.652;2023-05-07T14:57:14;19.30;59.50
50758;DHT22;36732;47.980;11.652;2023-05-07T14:59:41;19.30;59.40
50758;DHT22;36732;47.980;11.652;2023-05-07T15:02:08;19.30;59.40
50758;DHT22;36732;47.980;11.652;2023-05-07T15:04:35;19.30;59.50
50758;DHT22;36732;47.980;11.652;2023-05-07T15:07:00;19.30;59.60
50758;DHT22;36732;47.980;11.652;2023-05-07T15:09:26;19.30;59.80
50758;DHT22;36732;47.980;11.652;2023-05-07T15:11:52;19.30;59.70
50758;DHT22;36732;47.980;11.652;2023-05-07T15:14:18;19.30;59.80
50758;DHT22;36732;47.980;11.652;2023-05-07T15:16:44;19.30;59.80
50758;DHT22;36732;47.980;11.652;2023-05-07T15:19:10;19.30;59.80
50758;DHT22;36732;47.980;11.652;2023-05-07T15:21:36;19.30;59.80
50758;DHT22;36732;47.980;11.652;2023-05-07T15:24:02;19.30;59.70
50758;DHT22;36732;47.980;11.652;2023-05-07T15:26:28;19.30;59.70
50758;DHT22;36732;47.980;11.652;2023-05-07T15:28:54;19.30;60.00
50758;DHT22;36732;47.980;11.652;2023-05-07T15:31:23;19.30;59.80
50758;DHT22;36732;47.980;11.652;2023-05-07T15:33:50;19.30;59.90
50758;DHT22;36732;47.980;11.652;2023-05-07T15:36:17;19.30;60.00
50758;DHT22;36732;47.980;11.652;2023-05-07T15:38:43;19.30;60.00